Archival Weather

Luke Afb

Glendale, Arizona (KLUF)

Report from: Wednesday, December 6, 2023 10:55 AM MST
Current time: Wednesday, April 24, 2024 11:59 AM MST

Current weather – Weather history – Daily summaries
Weather forecast

Temperature22.0°C (71.6°F)
Dew point0.5°C (32.9°F)
Winds Calm
Visibility10 mi. (16.1 km)
Clouds Sky clear
Altimeter30.10 in.Hg (1019 mB)
Relative humidity24 %
Density altitude729 ft. (222 m)
Sea-level pressure101.9 kPa (1019 mB, 30.09 in.Hg)
Max temp last 6 hours22.0°C (71.6°F)
Min temp last 6 hours11.1°C (52.0°F)
Remarks System requires maintenance
Automated weather observing station with precipitation discriminator
Pressure falling more quickly
Flight conditions Visual Meteorological Conditions
Raw dataKLUF 061755Z 00000KT 10SM CLR 22/01 A3010 RMK AO2A SLP188 T02200005 10220 20111 58002 $
An error has occurred. This application may no longer respond until reloaded. Reload 🗙